Date,TemperatureHighF,TemperatureAvgF,TemperatureLowF,DewpointHighF,DewpointAvgF,DewpointLowF,HumidityHigh,HumidityAvg,HumidityLow,PressureMaxIn,PressureMinIn,WindSpeedMaxMPH,WindSpeedAvgMPH,GustSpeedMaxMPH,PrecipitationSumIn
2013-8-1,74.4,62.4,53.8,56.0,47.9,36.0,92,64,25,31.36,31.23,11,3,23,0.37
2013-8-2,65.6,56.1,48.4,52.0,47.9,46.0,91,75,52,31.53,31.29,12,3,16,0.00
2013-8-3,70.6,59.4,47.6,50.0,46.7,45.0,90,65,41,31.59,31.45,13,2,19,0.00
2013-8-4,79.5,65.9,52.3,50.0,44.4,36.0,79,50,23,31.52,31.32,7,1,13,0.00
2013-8-5,81.7,69.4,56.7,45.0,41.1,35.0,53,37,19,31.40,31.21,14,3,22,0.00
2013-8-6,80.4,69.3,56.7,46.0,42.9,41.0,60,40,25,31.39,31.26,11,2,14,0.00
2013-8-7,81.0,44.5,57.2,46.0,-5.1,-99.9,57,28,22,31.35,31.19,8,-332,13,0.00
2013-8-8,82.9,62.1,58.4,48.0,24.2,-99.9,48,31,15,31.38,31.20,17,-109,26,0.00
2013-8-9,84.2,68.8,63.4,52.0,44.7,-99.9,58,45,24,31.36,31.16,37,-13,46,0.00
2013-8-10,82.1,56.5,55.9,52.0,24.2,-99.9,73,43,23,31.39,31.22,20,-148,24,0.00
2013-8-11,79.6,69.8,60.5,48.0,42.7,39.0,53,38,26,31.36,31.25,16,2,19,0.00
2013-8-12,82.5,60.2,59.1,46.0,24.1,-99.9,54,34,20,31.42,31.25,16,-125,21,0.00
2013-8-13,81.3,67.6,60.9,46.0,36.3,-99.9,59,36,22,31.50,31.30,16,-39,20,0.00
2013-8-14,80.8,52.7,56.1,45.0,9.3,-99.9,59,31,16,31.45,31.26,12,-218,19,0.00
2013-8-15,81.0,40.9,60.2,41.0,-19.4,-99.9,45,18,19,31.36,31.15,5,-404,9,0.00
2013-8-16,80.7,41.2,63.8,47.0,-20.1,-99.9,39,17,19,31.34,31.17,8,-415,16,0.00
2013-8-17,84.4,68.7,64.4,49.0,36.7,-99.9,54,36,24,31.40,31.18,14,-59,16,0.00
2013-8-18,78.1,50.2,61.6,49.0,5.0,-99.9,60,31,24,31.38,31.25,11,-271,17,0.00
2013-8-19,79.9,42.9,58.7,44.0,-10.8,-99.9,51,24,25,31.42,31.22,12,-362,17,0.00
2013-8-20,83.0,71.0,61.0,45.0,39.7,31.0,50,34,19,31.38,31.23,15,5,24,0.00
2013-8-21,82.2,61.4,53.7,38.0,17.8,-99.9,50,25,11,31.45,31.27,11,-112,15,0.00
2013-8-22,83.9,71.5,59.3,40.0,35.9,32.0,40,28,17,31.41,31.14,8,2,13,0.00
2013-8-23,80.9,70.2,57.3,54.0,47.0,37.0,79,45,27,31.28,31.03,15,5,25,0.03
2013-8-24,83.8,70.5,57.2,49.0,44.5,36.0,67,42,19,31.26,31.04,21,5,29,0.00
2013-8-25,84.1,68.4,57.6,53.0,45.2,42.0,83,46,24,31.28,31.06,26,7,33,0.30
2013-8-26,79.6,66.4,55.4,56.0,47.9,38.0,84,56,30,31.39,31.22,11,3,17,0.00
2013-8-27,84.1,64.9,56.3,47.0,35.1,-99.9,58,39,20,31.37,31.16,19,-51,27,0.00
2013-8-28,77.1,69.0,58.4,52.0,47.9,43.0,69,48,37,31.34,31.21,19,6,26,0.00
2013-8-29,84.8,57.1,58.7,54.0,26.8,-99.9,70,46,28,31.39,31.15,17,-152,23,0.01
2013-8-30,78.4,66.0,54.8,54.0,48.5,41.0,87,57,30,31.49,31.36,15,4,19,0.00
2013-8-31,81.5,65.5,54.6,46.0,37.7,-99.9,67,42,26,31.51,31.29,11,-39,14,0.00